Anuket Pearl — 9HA2703 — position and weather

sailwx.info

Track history (hours):
 
Tides and Currents Weather Stations Pressure Air Temp Water Temp Dewpoint Dewpoint Depression Visibility Wind Speed Wind Dir Waves Ship Positions

Anuket Pearl

Last reported at 2017-Sep-20 17:21 UTC. Time now 2017-Sep-20 23:39 UTC.
Position N 04°34' W 002°07'.

Length 101 m; draft 6.6 m.

MMSI: 215338000.

Date/timePositionNaut miles runAvg speedWind from/ knotsBaromVisibWave heightAir tempDewpointWater temp
2017-Sep-20 17:21N 04°34' W 002°07'3 8.5
2017-Sep-20 16:59N 04°32' W 002°10'4 8.7
2017-Sep-20 16:30N 04°31' W 002°14'5 8.7
2017-Sep-20 15:59N 04°29' W 002°18'4 8.5
2017-Sep-20 15:28N 04°27' W 002°22'4 8.5
2017-Sep-20 15:00N 04°25' W 002°26'9 8.8
2017-Sep-20 13:59N 04°23' W 002°34'5 9.0
2017-Sep-20 13:29N 04°22' W 002°39'4 9.2
2017-Sep-20 13:00N 04°21' W 002°43'5 9.3
2017-Sep-20 12:30N 04°19' W 002°47'5 9.2
2017-Sep-20 11:59N 04°18' W 002°52'  
2017-Sep-16 07:49N 04°09' W 002°49'3 8.2
2017-Sep-16 07:24N 04°11' W 002°46'4 8.4
2017-Sep-16 06:59N 04°13' W 002°43'4 8.5
2017-Sep-16 06:29N 04°15' W 002°40'4 8.6
2017-Sep-16 05:59N 04°17' W 002°36'4 8.8
2017-Sep-16 05:29N 04°19' W 002°32'4 8.9
2017-Sep-16 05:00N 04°21' W 002°28'4 8.7
2017-Sep-16 04:29N 04°24' W 002°24'5 8.9
2017-Sep-16 03:55N 04°26' W 002°20'4 9.3
2017-Sep-16 03:30N 04°28' W 002°17'5 9.1
2017-Sep-16 03:00N 04°30' W 002°13'5 9.1
2017-Sep-16 02:29N 04°32' W 002°09'5 9.2
2017-Sep-16 01:59N 04°35' W 002°04'4 9.3
2017-Sep-16 01:30N 04°37' W 002°01'5 9.1
2017-Sep-16 00:58N 04°40' W 001°56'14 0.3
2017-Sep-14 04:24N 04°27' W 002°03'2 5.6
2017-Sep-14 04:00N 04°25' W 002°05'1 0.8
2017-Sep-14 03:24N 04°25' W 002°05'0 0.9
2017-Sep-14 03:00N 04°24' W 002°04'1 1.0
2017-Sep-14 02:15N 04°24' W 002°04'0 0.8
2017-Sep-14 01:42N 04°23' W 002°04'1 0.9
2017-Sep-14 00:18N 04°22' W 002°04'0 1.1
2017-Sep-13 23:57N 04°22' W 002°04'0 1.1
2017-Sep-13 23:30N 04°21' W 002°04'1 1.3
2017-Sep-13 23:00N 04°21' W 002°04'1 1.2
2017-Sep-13 22:30N 04°20' W 002°04'1 1.1
2017-Sep-13 22:00N 04°19' W 002°04'1 1.2
2017-Sep-13 21:30N 04°19' W 002°03'1 1.1
2017-Sep-13 21:00N 04°18' W 002°03'1 1.0
2017-Sep-13 20:27N 04°18' W 002°03'1 1.4
2017-Sep-13 20:00N 04°17' W 002°03'20 0.5
2017-Sep-12 04:27N 03°59' W 002°12'4 9.0
2017-Sep-12 04:00N 03°59' W 002°16'4 8.7
2017-Sep-12 03:30N 03°59' W 002°20'4 8.9
2017-Sep-12 03:00N 03°59' W 002°25'  
Track history (hours):
 
Tides and Currents Weather Stations Pressure Air Temp Water Temp Dewpoint Dewpoint Depression Visibility Wind Speed Wind Dir Waves Ship Positions

Anuket Pearl

Last reported at 2017-Sep-20 17:21 UTC. Time now 2017-Sep-20 23:39 UTC.
Position N 04°34' W 002°07'.

Length 101 m; draft 6.6 m.

MMSI: 215338000.

Date/timePositionNaut miles runAvg speedWind from/ knotsBaromVisibWave heightAir tempDewpointWater temp
2017-Sep-20 17:21N 04°34' W 002°07'3 8.5
2017-Sep-20 16:59N 04°32' W 002°10'4 8.7
2017-Sep-20 16:30N 04°31' W 002°14'5 8.7
2017-Sep-20 15:59N 04°29' W 002°18'4 8.5
2017-Sep-20 15:28N 04°27' W 002°22'4 8.5
2017-Sep-20 15:00N 04°25' W 002°26'9 8.8
2017-Sep-20 13:59N 04°23' W 002°34'5 9.0
2017-Sep-20 13:29N 04°22' W 002°39'4 9.2
2017-Sep-20 13:00N 04°21' W 002°43'5 9.3
2017-Sep-20 12:30N 04°19' W 002°47'5 9.2
2017-Sep-20 11:59N 04°18' W 002°52'  
2017-Sep-16 07:49N 04°09' W 002°49'3 8.2
2017-Sep-16 07:24N 04°11' W 002°46'4 8.4
2017-Sep-16 06:59N 04°13' W 002°43'4 8.5
2017-Sep-16 06:29N 04°15' W 002°40'4 8.6
2017-Sep-16 05:59N 04°17' W 002°36'4 8.8
2017-Sep-16 05:29N 04°19' W 002°32'4 8.9
2017-Sep-16 05:00N 04°21' W 002°28'4 8.7
2017-Sep-16 04:29N 04°24' W 002°24'5 8.9
2017-Sep-16 03:55N 04°26' W 002°20'4 9.3
2017-Sep-16 03:30N 04°28' W 002°17'5 9.1
2017-Sep-16 03:00N 04°30' W 002°13'5 9.1
2017-Sep-16 02:29N 04°32' W 002°09'5 9.2
2017-Sep-16 01:59N 04°35' W 002°04'4 9.3
2017-Sep-16 01:30N 04°37' W 002°01'5 9.1
2017-Sep-16 00:58N 04°40' W 001°56'14 0.3
2017-Sep-14 04:24N 04°27' W 002°03'2 5.6
2017-Sep-14 04:00N 04°25' W 002°05'1 0.8
2017-Sep-14 03:24N 04°25' W 002°05'0 0.9
2017-Sep-14 03:00N 04°24' W 002°04'1 1.0
2017-Sep-14 02:15N 04°24' W 002°04'0 0.8
2017-Sep-14 01:42N 04°23' W 002°04'1 0.9
2017-Sep-14 00:18N 04°22' W 002°04'0 1.1
2017-Sep-13 23:57N 04°22' W 002°04'0 1.1
2017-Sep-13 23:30N 04°21' W 002°04'1 1.3
2017-Sep-13 23:00N 04°21' W 002°04'1 1.2
2017-Sep-13 22:30N 04°20' W 002°04'1 1.1
2017-Sep-13 22:00N 04°19' W 002°04'1 1.2
2017-Sep-13 21:30N 04°19' W 002°03'1 1.1
2017-Sep-13 21:00N 04°18' W 002°03'1 1.0
2017-Sep-13 20:27N 04°18' W 002°03'1 1.4
2017-Sep-13 20:00N 04°17' W 002°03'20 0.5
2017-Sep-12 04:27N 03°59' W 002°12'4 9.0
2017-Sep-12 04:00N 03°59' W 002°16'4 8.7
2017-Sep-12 03:30N 03°59' W 002°20'4 8.9
2017-Sep-12 03:00N 03°59' W 002°25'  

Dump ship's entire track history